Time;durP1;ratioP1;P1;durP2;ratioP2;P2;SDS_P1;SDS_P2;PMS_P1;PMS_P2;Temp;Humidity;BMP_temperature;BMP_pressure;BME280_temperature;BME280_humidity;BME280_pressure;Samples;Min_cycle;Max_cycle;Signal;HPM_P1;HPM_P2
2021/08/04 00:01:54;;;;;;;1.90;1.60;;;16.00;79.40;;;14.84;78.45;95926.44;4943564;28;20491;-71
2021/08/04 00:04:19;;;;;;;4.35;2.00;;;16.10;79.40;;;14.84;77.63;95923.81;4951177;28;20062;-70
2021/08/04 00:06:45;;;;;;;2.47;1.65;;;16.10;79.60;;;14.84;76.74;95923.81;4970477;28;20123;-71
2021/08/04 00:09:11;;;;;;;2.85;1.98;;;16.00;79.20;;;14.85;77.79;95926.22;4962539;28;20483;-71
2021/08/04 00:11:36;;;;;;;6.57;2.17;;;16.10;79.80;;;14.85;77.21;95930.72;4957855;28;20481;-72
2021/08/04 00:14:02;;;;;;;2.53;1.80;;;16.00;79.40;;;14.76;78.11;95930.22;4964145;28;20066;-70
2021/08/04 00:16:28;;;;;;;4.80;2.40;;;15.80;79.90;;;14.74;78.09;95934.09;4947618;28;20387;-71
2021/08/04 00:18:54;;;;;;;4.90;2.15;;;15.80;80.00;;;14.71;78.02;95930.06;4949472;28;20439;-70
2021/08/04 00:21:20;;;;;;;5.68;3.00;;;15.80;80.50;;;14.70;78.23;95923.94;4952387;28;20135;-71
2021/08/04 00:23:45;;;;;;;4.15;1.80;;;15.80;80.80;;;14.68;79.08;95922.53;4936772;28;20121;-70
2021/08/04 00:26:11;;;;;;;2.85;1.80;;;15.80;80.70;;;14.65;77.90;95931.72;4970927;28;20418;-71
2021/08/04 00:28:37;;;;;;;3.65;2.33;;;15.70;81.00;;;14.64;78.49;95918.69;4936061;28;20061;-70
2021/08/04 00:31:03;;;;;;;5.18;2.60;;;15.80;81.20;;;14.65;79.52;95925.63;4950620;28;20407;-71
2021/08/04 00:33:28;;;;;;;2.40;1.77;;;15.80;81.20;;;14.63;78.89;95920.53;4966045;28;20504;-71
2021/08/04 00:35:54;;;;;;;3.58;2.28;;;15.80;81.10;;;14.61;77.95;95927.91;4949159;28;20594;-70
2021/08/04 00:38:20;;;;;;;3.78;2.13;;;15.70;81.20;;;14.59;79.48;95929.16;4965148;28;20125;-70
2021/08/04 00:40:46;;;;;;;2.90;2.13;;;15.70;81.40;;;14.53;79.83;95928.19;4945831;28;20047;-70
2021/08/04 00:43:12;;;;;;;3.53;2.00;;;15.60;81.90;;;14.50;78.69;95938.41;4948812;28;20152;-71
2021/08/04 00:45:38;;;;;;;4.78;2.13;;;15.60;82.30;;;14.48;79.46;95930.66;4929656;28;20048;-71
2021/08/04 00:48:04;;;;;;;3.05;2.17;;;15.60;82.50;;;14.50;79.86;95928.63;4915511;29;20044;-71
2021/08/04 00:50:30;;;;;;;2.83;1.98;;;15.60;82.10;;;14.51;79.67;95918.84;4947856;28;20047;-71
2021/08/04 00:52:56;;;;;;;3.35;2.10;;;15.60;82.30;;;14.51;78.92;95919.66;4970723;28;20049;-70
2021/08/04 00:55:22;;;;;;;3.35;2.15;;;15.70;82.20;;;14.55;79.41;95912.91;4950456;28;20050;-70
2021/08/04 00:57:48;;;;;;;2.45;2.13;;;15.80;82.50;;;14.57;81.08;95920.63;4961644;28;20046;-70
2021/08/04 01:00:14;;;;;;;2.97;1.90;;;15.70;82.00;;;14.56;80.04;95919.81;4931091;28;20028;-70
2021/08/04 01:03:06;;;;;;;3.55;2.42;;;15.70;81.70;;;14.55;81.83;95918.19;4931613;28;20054;-70
2021/08/04 01:05:38;;;;;;;3.72;2.10;;;15.70;82.00;;;14.54;80.61;95926.34;4927433;29;20527;-71
2021/08/04 01:08:10;;;;;;;3.67;3.05;;;15.60;82.20;;;14.52;80.30;95931.06;4951832;28;20043;-71
2021/08/04 01:10:49;;;;;;;3.80;2.40;;;15.60;82.40;;;14.51;80.50;95935.53;4951105;28;20036;-70
2021/08/04 01:13:35;;;;;;;2.35;2.03;;;15.50;82.60;;;14.48;80.69;95933.28;4951728;28;20055;-71
2021/08/04 01:16:27;;;;;;;3.05;2.47;;;15.60;82.70;;;14.42;82.25;95934.13;4932379;28;20520;-70
2021/08/04 01:18:59;;;;;;;4.47;2.15;;;15.40;83.00;;;14.41;81.04;95935.97;4962259;28;20039;-72
2021/08/04 01:21:45;;;;;;;3.15;2.20;;;15.60;83.10;;;14.39;83.16;95938.03;4946442;28;20028;-71
2021/08/04 01:24:39;;;;;;;3.40;2.42;;;15.50;83.40;;;14.40;81.36;95934.34;4948449;28;20035;-71
2021/08/04 01:27:05;;;;;;;3.33;2.38;;;15.60;83.10;;;14.38;80.13;95935.59;4939624;28;20034;-70
2021/08/04 01:29:31;;;;;;;7.60;2.40;;;15.50;83.60;;;14.37;80.83;95928.69;4945209;28;20123;-70
2021/08/04 01:31:59;;;;;;;6.35;2.40;;;15.50;83.00;;;14.34;81.67;95926.47;4932478;28;20031;-71
2021/08/04 01:34:25;;;;;;;2.78;2.35;;;15.40;83.40;;;14.31;81.49;95934.84;4932856;28;20043;-71
2021/08/04 01:36:50;;;;;;;2.75;2.25;;;15.50;83.50;;;14.34;80.51;95935.22;4935417;28;20027;-71
2021/08/04 01:39:17;;;;;;;2.97;2.15;;;15.60;83.20;;;14.38;81.65;95925.03;4951484;28;20031;-71
2021/08/04 01:41:43;;;;;;;3.17;2.22;;;15.60;83.50;;;14.37;81.42;95918.13;4950757;28;20035;-70
2021/08/04 01:44:09;;;;;;;3.25;2.45;;;15.60;83.10;;;14.35;80.61;95920.16;4935485;28;20050;-71
2021/08/04 01:46:35;;;;;;;4.00;2.45;;;15.50;83.10;;;14.36;82.05;95924.44;4950383;28;20044;-70
2021/08/04 01:49:01;;;;;;;4.25;2.40;;;15.60;83.50;;;14.36;81.86;95927.88;4950286;28;20054;-71
2021/08/04 01:51:27;;;;;;;6.05;2.60;;;15.60;83.20;;;14.36;81.87;95924.44;4943381;28;20050;-71
2021/08/04 01:53:53;;;;;;;3.75;2.50;;;15.60;83.10;;;14.35;81.99;95920.97;4950459;28;20105;-71
2021/08/04 01:56:18;;;;;;;5.75;2.30;;;15.50;83.10;;;14.34;82.76;95918.53;4915255;29;20534;-71
2021/08/04 01:58:44;;;;;;;2.60;2.28;;;15.60;83.30;;;14.35;81.78;95925.47;4970005;28;20587;-71
2021/08/04 02:01:10;;;;;;;4.35;2.13;;;15.50;83.60;;;14.35;81.29;95920.16;4951241;28;20035;-70
2021/08/04 02:03:37;;;;;;;4.57;2.30;;;15.60;83.30;;;14.36;82.16;95908.56;4934480;28;20031;-71
2021/08/04 02:06:11;;;;;;;3.22;2.58;;;15.60;83.30;;;14.35;82.88;95912.22;4951576;28;20039;-71
2021/08/04 02:09:09;;;;;;;6.30;2.70;;;15.60;83.10;;;14.33;83.03;95916.94;4947450;28;20058;-72
2021/08/04 02:11:42;;;;;;;5.53;2.85;;;15.50;83.40;;;14.31;82.61;95911.03;4951201;28;20068;-70
2021/08/04 02:14:24;;;;;;;3.70;2.78;;;15.50;83.60;;;14.32;83.84;95910.84;4946098;28;20459;-70
2021/08/04 02:17:16;;;;;;;5.80;3.05;;;15.60;83.70;;;14.33;82.82;95912.44;4942389;28;20439;-70
2021/08/04 02:19:47;;;;;;;4.40;2.55;;;15.60;83.60;;;14.30;83.10;95906.78;4928049;28;20043;-71
2021/08/04 02:22:38;;;;;;;4.18;2.60;;;15.60;83.60;;;14.34;83.24;95915.91;4929412;28;20134;-71
2021/08/04 02:25:22;;;;;;;4.10;2.92;;;15.60;83.90;;;14.37;83.48;95912.81;4956961;28;20032;-71
2021/08/04 02:27:48;;;;;;;4.85;2.50;;;15.70;83.70;;;14.39;82.45;95910.75;4947640;28;20519;-71
2021/08/04 02:30:16;;;;;;;4.63;2.65;;;15.70;83.60;;;14.41;81.49;95911.34;4931447;28;20062;-71
2021/08/04 02:32:41;;;;;;;3.83;2.70;;;15.70;83.10;;;14.38;82.68;95914.44;4941900;28;20048;-71
2021/08/04 02:35:08;;;;;;;5.40;3.05;;;15.60;83.50;;;14.39;82.62;95919.50;4937826;28;20105;-70
2021/08/04 02:37:34;;;;;;;4.32;2.78;;;15.60;83.30;;;14.38;81.64;95914.44;4950416;28;20039;-70
2021/08/04 02:39:59;;;;;;;4.95;2.78;;;15.60;83.60;;;14.33;82.51;95912.44;4950306;28;20767;-71
2021/08/04 02:42:25;;;;;;;3.97;2.97;;;15.50;83.80;;;14.30;82.70;95912.88;4943898;28;20071;-70
2021/08/04 02:44:51;;;;;;;8.25;2.85;;;15.50;83.80;;;14.26;82.89;95910.91;4943454;28;20121;-70
2021/08/04 02:47:17;;;;;;;4.65;3.13;;;15.40;83.80;;;14.19;82.25;95907.47;4966473;28;20032;-71
2021/08/04 02:49:43;;;;;;;6.63;2.88;;;15.30;84.10;;;14.17;83.00;95912.16;4942111;28;20071;-70
2021/08/04 02:52:09;;;;;;;4.57;3.15;;;15.30;84.10;;;14.13;82.50;95905.69;4945472;28;20196;-70
2021/08/04 02:54:35;;;;;;;4.70;2.70;;;15.30;84.00;;;14.08;82.05;95904.50;4931630;28;20503;-69
2021/08/04 02:57:01;;;;;;;6.15;2.67;;;15.20;84.10;;;14.07;83.38;95894.97;4937443;28;20097;-70
2021/08/04 02:59:26;;;;;;;4.65;2.70;;;15.10;84.20;;;14.06;82.06;95889.88;4937443;28;20528;-69
2021/08/04 03:01:52;;;;;;;7.13;3.17;;;15.30;84.10;;;14.08;83.33;95888.66;4958554;28;20096;-69
2021/08/04 03:04:18;;;;;;;5.60;2.92;;;15.30;83.80;;;14.02;82.52;95889.47;4946753;28;20606;-71
2021/08/04 03:06:44;;;;;;;6.95;2.83;;;15.20;84.20;;;14.03;82.96;95891.13;4965730;28;20455;-71
2021/08/04 03:09:09;;;;;;;3.88;2.80;;;15.20;84.10;;;14.02;82.03;95893.97;4949888;28;20077;-71
2021/08/04 03:11:35;;;;;;;5.22;2.80;;;15.20;84.00;;;14.02;82.83;95888.66;4959185;28;20042;-71
2021/08/04 03:14:01;;;;;;;4.22;2.83;;;15.30;83.90;;;14.01;82.81;95898.44;4945886;28;20048;-70
2021/08/04 03:16:26;;;;;;;4.57;3.05;;;15.20;84.20;;;13.99;82.32;95889.09;4943612;28;20107;-70
2021/08/04 03:18:52;;;;;;;5.18;2.83;;;15.10;83.80;;;13.94;82.70;95896.88;4965965;28;20065;-70
2021/08/04 03:21:18;;;;;;;5.40;2.67;;;15.00;84.10;;;13.93;82.87;95895.25;4966133;28;20039;-70
2021/08/04 03:23:44;;;;;;;8.25;3.25;;;15.10;84.20;;;13.92;83.46;95897.09;4949936;28;20185;-71
2021/08/04 03:26:09;;;;;;;4.78;2.88;;;15.10;84.10;;;13.88;82.54;95898.56;4965235;28;20071;-70
2021/08/04 03:28:35;;;;;;;4.70;3.17;;;15.10;84.20;;;13.87;82.44;95896.94;4950657;28;20113;-71
2021/08/04 03:31:01;;;;;;;4.55;3.08;;;15.10;84.00;;;13.89;83.51;95905.47;4935810;28;20110;-71
2021/08/04 03:33:26;;;;;;;3.55;2.67;;;15.10;84.10;;;13.90;83.36;95911.56;4949692;28;20083;-71
2021/08/04 03:35:52;;;;;;;4.15;2.97;;;15.10;84.10;;;13.91;83.58;95902.59;4951197;28;20102;-71
2021/08/04 03:38:18;;;;;;;5.55;3.22;;;15.10;84.10;;;13.90;83.95;95906.28;4930039;28;20059;-71
2021/08/04 03:40:44;;;;;;;5.25;2.92;;;15.10;83.90;;;13.87;83.35;95899.59;4946675;28;20389;-72
2021/08/04 03:43:09;;;;;;;4.63;2.95;;;15.10;84.10;;;13.87;83.52;95902.22;4947573;28;20503;-72
2021/08/04 03:45:35;;;;;;;4.47;2.85;;;15.10;83.90;;;13.86;82.43;95897.97;4940727;28;20086;-72
2021/08/04 03:48:01;;;;;;;6.00;3.20;;;15.10;84.00;;;13.89;83.17;95900.19;4965644;28;20050;-71
2021/08/04 03:50:27;;;;;;;4.80;2.92;;;15.10;83.90;;;13.93;83.35;95890.78;4949069;28;20171;-73
2021/08/04 03:52:53;;;;;;;6.32;3.00;;;15.20;83.90;;;13.97;83.81;95891.97;4933727;28;20035;-71
2021/08/04 03:55:18;;;;;;;4.43;2.80;;;15.30;83.80;;;14.01;83.23;95893.16;4950060;28;20049;-72
2021/08/04 03:57:44;;;;;;;3.85;2.58;;;15.40;83.70;;;14.02;83.32;95889.47;4953314;28;20511;-72
2021/08/04 04:00:12;;;;;;;4.00;2.85;;;15.30;83.10;;;14.05;83.09;95894.38;4949124;28;20577;-72
2021/08/04 04:02:37;;;;;;;3.53;2.83;;;15.40;83.20;;;14.07;83.17;95887.03;4949456;28;20039;-71
2021/08/04 04:05:06;;;;;;;4.28;2.80;;;15.50;83.10;;;14.09;82.44;95890.25;4941256;28;20034;-70
2021/08/04 04:07:32;;;;;;;4.75;2.90;;;15.50;82.80;;;14.10;83.24;95886.59;4949670;28;20031;-71
2021/08/04 04:09:58;;;;;;;4.72;2.85;;;15.40;83.20;;;14.10;82.19;95894.53;4937499;28;20118;-72
2021/08/04 04:12:23;;;;;;;6.20;2.83;;;15.40;83.30;;;14.12;82.33;95893.50;4950690;28;20487;-71
2021/08/04 04:14:49;;;;;;;5.80;3.00;;;15.50;83.20;;;14.15;82.70;95888.59;4951744;28;20535;-70
2021/08/04 04:17:15;;;;;;;4.85;2.53;;;15.60;83.30;;;14.19;83.79;95888.94;4965256;28;20040;-71
2021/08/04 04:19:41;;;;;;;4.13;2.88;;;15.60;83.30;;;14.22;82.88;95884.03;4944255;28;20031;-71
2021/08/04 04:22:06;;;;;;;3.38;2.40;;;15.60;82.90;;;14.27;83.99;95892.16;4964528;28;20659;-71
2021/08/04 04:24:32;;;;;;;4.13;2.65;;;15.70;83.00;;;14.30;83.00;95885.63;4958128;28;20515;-70
2021/08/04 04:26:58;;;;;;;5.72;2.72;;;15.70;82.40;;;14.31;82.71;95880.09;4964579;28;20078;-72
2021/08/04 04:29:23;;;;;;;5.78;2.75;;;15.70;82.10;;;14.34;82.32;95886.78;4942183;28;20069;-71
2021/08/04 04:31:49;;;;;;;4.45;2.72;;;15.80;82.10;;;14.38;82.45;95887.97;4968542;28;20059;-71
2021/08/04 04:34:15;;;;;;;4.78;2.40;;;15.80;82.20;;;14.41;82.43;95895.47;4939494;28;20071;-72
2021/08/04 04:36:41;;;;;;;4.28;2.92;;;15.90;81.80;;;14.44;82.32;95891.63;4951203;28;20031;-70
2021/08/04 04:39:06;;;;;;;4.90;3.38;;;15.90;81.40;;;14.48;82.32;95895.44;4952190;28;20039;-70
2021/08/04 04:41:32;;;;;;;6.97;2.95;;;16.00;81.30;;;14.49;81.30;95895.25;4948738;28;20130;-70
2021/08/04 04:43:59;;;;;;;4.90;2.80;;;15.90;81.40;;;14.49;81.86;95902.38;4946354;28;20125;-71
2021/08/04 04:46:25;;;;;;;5.10;2.58;;;15.90;81.00;;;14.50;82.25;95891.56;4952106;28;20055;-71
2021/08/04 04:48:51;;;;;;;4.97;2.67;;;16.00;81.40;;;14.54;82.80;95898.03;4947710;28;20531;-71
2021/08/04 04:51:16;;;;;;;5.22;2.90;;;16.10;81.40;;;14.56;81.06;95895.97;4948999;28;20046;-71
2021/08/04 04:53:42;;;;;;;4.00;2.60;;;16.10;81.60;;;14.60;81.42;95896.34;4951216;28;20023;-72
2021/08/04 04:56:08;;;;;;;4.05;3.08;;;16.10;81.20;;;14.62;81.09;95900.41;4946851;28;20514;-73
2021/08/04 04:58:33;;;;;;;14.00;7.47;;;16.10;81.50;;;14.65;81.67;95894.66;4966454;28;20593;-72
2021/08/04 05:00:59;;;;;;;8.68;6.90;;;16.20;81.70;;;14.68;81.32;95896.06;4962229;28;20641;-72
2021/08/04 05:03:25;;;;;;;5.57;3.70;;;16.20;80.80;;;14.72;81.04;95905.19;4950836;28;20032;-71
2021/08/04 05:05:51;;;;;;;7.68;3.20;;;16.20;80.90;;;14.74;80.86;95912.94;4944573;28;20039;-69
2021/08/04 05:08:16;;;;;;;4.07;2.88;;;16.20;80.90;;;14.77;81.45;95912.47;4968257;28;20063;-70
2021/08/04 05:10:42;;;;;;;5.30;2.72;;;16.30;80.90;;;14.82;82.46;95915.28;4960526;28;20106;-71
2021/08/04 05:13:08;;;;;;;3.70;2.78;;;16.40;80.80;;;14.85;81.22;95912.19;4951487;28;20428;-70
2021/08/04 05:15:33;;;;;;;16.88;11.90;;;16.40;80.40;;;14.88;80.43;95917.84;4952912;28;20511;-70
2021/08/04 05:18:00;;;;;;;9.25;6.53;;;16.40;80.10;;;14.87;81.79;95918.06;4952461;28;20035;-71
2021/08/04 05:20:25;;;;;;;6.10;3.30;;;16.40;80.10;;;14.91;80.63;95911.28;4951382;28;20036;-70
2021/08/04 05:22:51;;;;;;;6.53;2.80;;;16.40;79.70;;;14.93;81.65;95914.53;4948141;28;20065;-70
2021/08/04 05:25:17;;;;;;;3.50;2.50;;;16.40;79.80;;;14.97;80.84;95913.09;4951703;28;20038;-70
2021/08/04 05:27:42;;;;;;;3.67;2.45;;;16.40;79.60;;;14.99;81.13;95911.03;4947093;28;20039;-71
2021/08/04 05:30:09;;;;;;;3.97;2.60;;;16.60;79.60;;;15.05;81.22;95909.31;4939553;28;20071;-71
2021/08/04 05:32:35;;;;;;;5.60;2.60;;;16.60;79.20;;;15.07;80.33;95905.41;4949227;28;20548;-71
2021/08/04 05:35:01;;;;;;;4.95;2.80;;;16.60;78.90;;;15.12;79.90;95915.34;4947806;28;20138;-71
2021/08/04 05:37:26;;;;;;;4.35;2.75;;;16.70;79.10;;;15.20;80.78;95913.22;4967735;28;20031;-70
2021/08/04 05:39:52;;;;;;;5.45;2.53;;;16.80;79.30;;;15.24;80.78;95911.75;4961196;28;20024;-71
2021/08/04 05:42:18;;;;;;;3.72;2.85;;;16.80;78.30;;;15.29;79.47;95911.88;4948260;28;20071;-71
2021/08/04 05:44:44;;;;;;;4.93;2.65;;;16.90;77.80;;;15.34;80.18;95916.50;4965649;28;20070;-71
2021/08/04 05:47:09;;;;;;;4.45;2.35;;;17.00;77.20;;;15.39;78.83;95918.47;4963252;28;20131;-72
2021/08/04 05:49:35;;;;;;;3.53;2.33;;;17.00;77.20;;;15.43;79.19;95906.44;4948076;28;20602;-72
2021/08/04 05:52:01;;;;;;;4.68;3.45;;;17.10;77.40;;;15.51;79.07;95911.41;4940011;28;20075;-71
2021/08/04 05:54:27;;;;;;;9.82;6.28;;;17.10;77.20;;;15.54;78.30;95909.09;4964541;28;20032;-71
2021/08/04 05:56:53;;;;;;;3.25;2.65;;;17.10;76.70;;;15.59;78.75;95900.50;4937633;28;20180;-72
2021/08/04 05:59:18;;;;;;;4.50;2.78;;;17.20;76.30;;;15.64;78.71;95900.66;4952132;28;20090;-71
2021/08/04 06:01:44;;;;;;;3.95;2.53;;;17.30;76.90;;;15.67;78.94;95897.56;4951999;28;20440;-71
2021/08/04 06:04:10;;;;;;;5.13;2.30;;;17.40;77.20;;;15.74;78.87;95890.31;4935580;28;20038;-71
2021/08/04 06:06:35;;;;;;;4.32;2.40;;;17.50;76.70;;;15.81;78.49;95890.19;4949759;28;20523;-71
2021/08/04 06:09:01;;;;;;;3.63;2.30;;;17.60;76.40;;;15.85;77.65;95889.53;4945531;28;20440;-71
2021/08/04 06:11:27;;;;;;;4.38;2.25;;;17.70;75.10;;;15.95;78.37;95888.97;4951276;28;20031;-70
2021/08/04 06:13:53;;;;;;;2.60;2.30;;;17.80;74.80;;;16.00;77.64;95902.38;4948683;28;20062;-70
2021/08/04 06:16:18;;;;;;;3.63;2.00;;;17.70;74.50;;;16.07;77.82;95905.75;4951090;28;20114;-71
2021/08/04 06:18:44;;;;;;;3.25;2.00;;;17.90;74.20;;;16.14;76.51;95908.28;4935079;28;20118;-71
2021/08/04 06:21:10;;;;;;;3.38;2.15;;;17.90;73.00;;;16.24;76.40;95900.56;4965282;28;20028;-72
2021/08/04 06:23:36;;;;;;;2.50;1.80;;;18.20;72.20;;;16.40;75.90;95899.09;4942253;28;20165;-72
2021/08/04 06:26:02;;;;;;;3.63;1.98;;;18.70;70.50;;;16.61;75.52;95901.16;4949730;28;20054;-71
2021/08/04 06:28:27;;;;;;;2.88;1.80;;;19.10;69.70;;;16.82;75.19;95905.94;4964298;28;20043;-73
2021/08/04 06:30:54;;;;;;;4.32;1.73;;;19.20;69.00;;;16.96;73.81;95906.47;4950013;28;20158;-72
2021/08/04 06:33:19;;;;;;;5.85;4.75;;;19.10;66.00;;;17.04;72.99;95908.78;4950323;28;20067;-71
2021/08/04 06:35:45;;;;;;;9.02;6.18;;;19.00;67.80;;;17.13;72.93;95899.41;4947912;28;20562;-74
2021/08/04 06:38:11;;;;;;;8.98;6.80;;;19.10;68.00;;;17.23;72.48;95905.97;4945909;28;20538;-75
2021/08/04 06:40:37;;;;;;;4.68;2.90;;;19.10;67.80;;;17.28;71.98;95908.72;4947654;28;20071;-68
2021/08/04 06:43:02;;;;;;;7.68;4.90;;;19.10;67.20;;;17.31;71.50;95908.25;4954843;28;20039;-68
2021/08/04 06:45:28;;;;;;;3.08;2.00;;;19.10;67.00;;;17.31;71.18;95913.56;4922739;29;20138;-66
2021/08/04 06:47:54;;;;;;;3.03;2.20;;;18.90;65.60;;;17.30;70.37;95909.28;4950471;28;20555;-67
2021/08/04 06:50:20;;;;;;;4.85;3.50;;;19.00;66.10;;;17.31;70.64;95903.75;4950441;28;20510;-68
2021/08/04 06:52:45;;;;;;;2.53;1.80;;;19.10;66.70;;;17.32;70.52;95905.34;4949166;28;20044;-66
2021/08/04 06:55:11;;;;;;;2.92;1.65;;;19.10;66.60;;;17.34;70.21;95902.47;4915841;29;20043;-71
2021/08/04 06:57:37;;;;;;;5.57;1.50;;;19.20;66.00;;;17.38;70.52;95903.59;4946332;28;20675;-73
2021/08/04 07:00:03;;;;;;;3.35;1.63;;;19.20;65.80;;;17.46;69.93;95897.94;4933402;28;20086;-71
2021/08/04 07:02:29;;;;;;;2.00;1.38;;;19.30;65.00;;;17.44;69.87;95890.19;4945116;28;20504;-72
2021/08/04 07:04:55;;;;;;;2.80;1.80;;;19.10;65.50;;;17.46;70.48;95889.94;4942617;28;20134;-71
2021/08/04 07:07:20;;;;;;;6.93;1.88;;;19.30;67.30;;;17.53;70.57;95893.28;4949578;28;20035;-72
2021/08/04 07:09:46;;;;;;;2.45;1.73;;;19.50;67.20;;;17.61;69.97;95895.53;4919790;28;20035;-72
2021/08/04 07:12:12;;;;;;;4.75;2.60;;;19.60;65.40;;;17.73;69.67;95896.34;4929528;29;20134;-72
2021/08/04 07:14:38;;;;;;;5.80;4.00;;;19.90;65.00;;;17.81;69.26;95892.47;4949210;28;20125;-72
2021/08/04 07:17:04;;;;;;;5.03;2.80;;;19.90;63.00;;;17.89;69.28;95899.28;4947864;28;20062;-72
2021/08/04 07:19:30;;;;;;;3.70;2.70;;;19.90;63.90;;;17.97;68.38;95902.34;4932568;28;20064;-73
2021/08/04 07:21:56;;;;;;;4.45;2.22;;;20.00;63.90;;;18.02;68.13;95910.41;4962088;28;20054;-69
2021/08/04 07:24:22;;;;;;;2.83;1.42;;;20.10;64.10;;;18.07;68.53;95912.34;4949835;28;20511;-73
2021/08/04 07:26:48;;;;;;;2.65;1.65;;;19.90;62.60;;;18.11;68.29;95902.84;4946976;28;20054;-72
2021/08/04 07:29:13;;;;;;;4.90;1.52;;;20.10;63.80;;;18.17;67.73;95901.06;4961122;28;20067;-73
2021/08/04 07:31:40;;;;;;;2.53;1.20;;;20.20;63.20;;;18.28;67.97;95908.97;4941140;28;20028;-69
2021/08/04 07:34:05;;;;;;;2.45;1.30;;;20.60;61.50;;;18.40;67.84;95903.59;4949535;28;20062;-72
2021/08/04 07:36:31;;;;;;;2.10;1.60;;;20.80;60.20;;;18.48;67.22;95907.69;4923649;28;20559;-71
2021/08/04 07:38:57;;;;;;;2.83;1.52;;;20.90;60.70;;;18.62;66.26;95904.50;4922210;28;20035;-66
2021/08/04 07:41:23;;;;;;;2.72;1.20;;;21.20;59.50;;;18.72;66.59;95895.03;4958031;28;20031;-66
2021/08/04 07:43:51;;;;;;;3.63;1.67;;;21.10;57.70;;;18.81;65.75;95896.22;4950956;28;20031;-66
2021/08/04 07:46:17;;;;;;;3.67;1.42;;;21.40;56.80;;;18.96;65.12;95899.09;4947837;28;20058;-66
2021/08/04 07:48:47;;;;;;;4.00;1.30;;;21.70;56.90;;;19.17;62.68;95892.97;4953296;28;20118;-66
2021/08/04 07:51:12;;;;;;;5.50;4.93;;;22.00;55.50;;;19.32;63.63;95894.22;4966171;28;20042;-65
2021/08/04 07:53:38;;;;;;;3.08;2.00;;;21.80;53.80;;;19.38;63.66;95891.34;4950934;28;20035;-69
2021/08/04 07:56:04;;;;;;;3.00;1.50;;;21.70;56.30;;;19.53;64.15;95899.56;4945085;28;20142;-66
2021/08/04 07:58:30;;;;;;;3.80;2.17;;;22.00;56.00;;;19.63;63.93;95898.84;4972296;28;20038;-68
2021/08/04 08:00:56;;;;;;;3.50;1.48;;;22.00;57.10;;;19.66;62.05;95897.56;4950084;28;20416;-69
2021/08/04 08:03:21;;;;;;;2.63;1.60;;;21.60;54.80;;;19.67;62.92;95888.47;4946206;28;20504;-66
2021/08/04 08:05:47;;;;;;;2.42;1.33;;;21.60;56.20;;;19.66;62.31;95886.88;4960931;28;20035;-65
2021/08/04 08:08:15;;;;;;;1.85;1.48;;;21.60;56.60;;;19.68;61.51;95884.75;4954413;28;20047;-72
2021/08/04 08:10:41;;;;;;;2.85;1.42;;;21.60;55.40;;;19.66;61.80;95887.69;4964000;28;21356;-73
2021/08/04 08:13:07;;;;;;;3.25;1.33;;;21.40;56.80;;;19.61;61.08;95884.16;4952385;28;20042;-72
2021/08/04 08:15:33;;;;;;;3.10;1.52;;;21.30;55.90;;;19.55;61.32;95886.78;4948484;28;20043;-70
2021/08/04 08:17:59;;;;;;;4.03;1.80;;;21.30;57.00;;;19.50;62.31;95889.38;4938541;28;20761;-68
2021/08/04 08:20:26;;;;;;;5.43;3.20;;;21.10;57.00;;;19.39;61.87;95900.97;4949075;28;20051;-67
2021/08/04 08:22:52;;;;;;;2.53;1.48;;;21.00;57.30;;;19.32;61.46;95889.69;4953778;28;20059;-69
2021/08/04 08:25:18;;;;;;;2.67;1.45;;;20.80;56.50;;;19.31;61.78;95890.75;4963304;28;20067;-66
2021/08/04 08:27:45;;;;;;;2.03;1.42;;;21.00;58.00;;;19.29;60.67;95892.84;4951676;28;20122;-67
2021/08/04 08:30:12;;;;;;;1.95;1.45;;;21.00;57.50;;;19.26;61.96;95885.34;4952497;28;20035;-66
2021/08/04 08:32:37;;;;;;;1.85;1.30;;;21.10;57.20;;;19.26;60.95;95882.69;4934002;28;20040;-67
2021/08/04 08:35:05;;;;;;;1.88;1.38;;;21.00;57.30;;;19.23;60.71;95891.97;4953274;28;20126;-65
2021/08/04 08:37:31;;;;;;;2.75;1.33;;;21.00;57.80;;;19.24;61.02;95892.81;4937997;28;20044;-64
2021/08/04 08:39:57;;;;;;;1.88;1.10;;;21.00;58.50;;;19.10;61.15;95905.69;4941123;28;20458;-64
2021/08/04 08:42:22;;;;;;;2.25;1.42;;;20.50;57.60;;;18.93;61.46;95891.59;4938956;28;20043;-65
2021/08/04 08:44:48;;;;;;;2.55;1.35;;;20.20;58.80;;;18.86;60.58;95899.75;4968230;28;20057;-66
2021/08/04 08:47:14;;;;;;;3.15;1.50;;;20.30;58.90;;;18.86;61.17;95896.28;4952430;28;20039;-66
2021/08/04 08:49:42;;;;;;;2.35;1.40;;;20.50;60.00;;;18.88;61.32;95892.31;4948969;28;20039;-67
2021/08/04 08:52:07;;;;;;;2.03;1.48;;;20.60;60.40;;;18.89;61.70;95885.13;4927413;28;20123;-66
2021/08/04 08:54:33;;;;;;;3.55;1.83;;;20.60;60.60;;;18.88;63.28;95887.00;4949710;28;20059;-66
2021/08/04 08:56:59;;;;;;;3.70;1.70;;;20.70;60.40;;;18.88;62.30;95881.66;4949518;28;20094;-67
2021/08/04 08:59:24;;;;;;;2.72;1.75;;;20.60;57.90;;;18.89;62.15;95888.59;4949191;28;20066;-68
2021/08/04 09:01:50;;;;;;;1.65;1.40;;;20.60;57.90;;;18.91;61.13;95881.16;4944538;28;20063;-68
2021/08/04 09:04:16;;;;;;;2.80;1.50;;;20.70;58.00;;;19.00;61.72;95878.06;4951187;28;20038;-66
2021/08/04 09:06:46;;;;;;;1.65;1.33;;;20.90;58.30;;;19.08;62.00;95875.78;4952141;28;20079;-66
2021/08/04 09:09:18;;;;;;;2.05;1.20;;;21.10;58.10;;;19.21;62.78;95882.59;4936784;28;20047;-74
2021/08/04 09:11:46;;;;;;;2.10;1.20;;;21.20;57.80;;;19.34;61.40;95882.25;4927552;29;20123;-73
2021/08/04 09:14:12;;;;;;;7.65;6.10;;;21.60;56.80;;;19.47;61.47;95879.19;4933831;28;20039;-73
2021/08/04 09:16:39;;;;;;;5.53;2.30;;;21.70;56.50;;;19.56;61.59;95877.72;4912220;28;20095;-71
2021/08/04 09:19:17;;;;;;;2.97;1.52;;;21.70;56.50;;;19.69;60.25;95865.03;4931533;28;20031;-71
2021/08/04 09:21:43;;;;;;;2.58;1.55;;;21.80;55.40;;;19.74;60.90;95862.44;4938139;28;20035;-73
2021/08/04 09:24:08;;;;;;;2.60;1.52;;;21.70;55.20;;;19.73;60.29;95856.28;4931347;29;20032;-71
2021/08/04 09:26:38;;;;;;;2.80;2.10;;;21.60;55.50;;;19.77;60.20;95857.38;4932426;28;20036;-71
2021/08/04 09:29:05;;;;;;;3.38;2.28;;;21.70;55.80;;;19.83;60.43;95871.56;4933890;28;20102;-72
2021/08/04 09:31:54;;;;;;;3.65;2.45;;;21.80;56.10;;;19.88;59.79;95852.94;4949698;28;20046;-71
2021/08/04 09:34:39;;;;;;;2.80;1.83;;;22.00;55.60;;;19.97;59.31;95862.09;4951660;28;20038;-71
2021/08/04 09:37:07;;;;;;;2.65;2.20;;;22.00;55.10;;;20.03;58.88;95850.41;4941607;28;20138;-71
2021/08/04 09:39:34;;;;;;;1.83;1.30;;;22.00;54.20;;;20.06;59.24;95857.09;4949230;28;20114;-71
2021/08/04 09:42:00;;;;;;;2.67;1.50;;;22.00;54.00;;;20.08;59.39;95845.09;4938427;28;20039;-71
2021/08/04 09:44:26;;;;;;;2.33;1.25;;;22.00;54.30;;;20.07;59.54;95854.16;4946302;28;20039;-71
2021/08/04 09:47:12;;;;;;;1.70;1.20;;;22.00;56.30;;;20.08;57.98;95846.97;4950426;28;20027;-72
2021/08/04 09:49:39;;;;;;;2.10;1.30;;;21.70;54.90;;;20.03;58.85;95850.41;4941709;28;20032;-72
2021/08/04 09:52:10;;;;;;;3.10;1.40;;;21.80;55.70;;;20.00;57.31;95842.91;4931479;29;20044;-71
2021/08/04 09:54:42;;;;;;;2.72;1.58;;;21.70;54.90;;;19.98;59.46;95846.91;4963495;28;20031;-70
2021/08/04 09:57:11;;;;;;;2.72;1.50;;;21.80;56.10;;;19.93;59.33;95839.66;4941124;28;20027;-71
2021/08/04 09:59:37;;;;;;;1.73;1.30;;;21.70;55.50;;;19.93;59.96;95841.53;4921011;29;20090;-67
2021/08/04 10:02:04;;;;;;;3.42;1.52;;;21.70;56.60;;;19.92;59.81;95831.91;4940228;28;20040;-66
2021/08/04 10:04:31;;;;;;;5.65;1.23;;;21.70;56.40;;;19.87;58.66;95836.13;4926095;28;20028;-67
2021/08/04 10:07:08;;;;;;;2.80;1.40;;;21.70;54.90;;;19.93;58.55;95834.31;4942502;28;20027;-68
2021/08/04 10:09:34;;;;;;;4.72;1.73;;;21.80;55.60;;;20.03;59.34;95830.91;4938843;28;20632;-67
2021/08/04 10:12:00;;;;;;;3.25;1.33;;;22.00;54.50;;;20.13;59.43;95839.00;4950737;28;20047;-66
2021/08/04 10:14:26;;;;;;;2.35;1.20;;;22.10;54.80;;;20.21;59.48;95835.06;4915911;28;20027;-66
2021/08/04 10:16:52;;;;;;;1.70;1.20;;;22.30;54.80;;;20.26;57.91;95827.09;4950248;28;20380;-65
2021/08/04 10:19:18;;;;;;;2.72;1.48;;;22.20;53.10;;;20.28;57.79;95827.63;4965677;28;20578;-64
2021/08/04 10:21:51;;;;;;;2.40;1.40;;;22.10;52.90;;;20.32;57.44;95832.19;4946408;28;20039;-67